Etusivu
METAR-TAF:

METAR-TAF

Lentoasemat :

Jacksonsin kansainvälinen lentoasema

Port Moresby, Papua-Uusi-Guinea

Leveyspiiri: 09-26S, Pituuspiiri: 147-13E, korkeus merenpinnasta: 38 m

Tämänhetkinen sää

Tämä raportti tehtiin 6 tuntia ja 9 minuuttia sitten, kello 09.00 UTC
Lämpötila 26°C
Kosteus 84%
Ilmanpaine 1010 hPa
Näkyvyys 10 km tai enemmän

METAR: AYPY 250900Z 13015/20KT 9999 FEW ABV050 26/23 Q1010

Aika: 01:09 (15:09 UTC)

Sääennuste

Tämä raportti tehtiin 16 tuntia ja 39 minuuttia sitten, kello 22.30 UTC
Ennuste voimassa 25. päivästä klo 00 UTC - 25. päivään klo 24 UTC
Tuuli 15 kn etelästä
Näkyvyys 10 km tai enemmän
Muutamia pilviä 1800 ft:n korkeudessa
Hajanaisia pilviä 14000 ft:n korkeudessa
From 25. päivästä klo 0400 UTC
Tuuli 15 kn etelästä puuskistuen 26 kn:hen
Näkyvyys 10 km tai enemmän
Hajanaisia pilviä 2000 ft:n korkeudessa
Hajanaisia pilviä 14000 ft:n korkeudessa

TAF: AYPY 242230Z 2500/2524 17015KT 9999 FEW018 SCT140 FM250400 17015G26KT 9999 SCT020 SCT140

Säähavainnot ja -ennusteet yli 4000 lentoasemalta (METAR- ja TAF-raportit).

Käytössä olevat sääasemat on merkitty karttaan keltaisilla ja punaisilla pisteillä.

Aseta hiiri pisteen päälle nähdäksesi sääaseman nimen.

Klikkaa sitten nähdäksesi säähavainnot ja -ennusteet.

Kartan vaihtaminen: klikkaa mustalla rastilla varustettuja vihreitä pisteitä, niin voit zoomata sisään; viivalla varustettua vihreää pistettä, niin voit zoomata ulos tai vihreitä nuolia, niin pääset viereisille kartoille.


METAR-TAF: